createdAt,value
2023-05-15T00:01:55.978Z,12.77
2023-05-15T00:04:22.408Z,9.27
2023-05-15T00:06:48.909Z,11.27
2023-05-15T00:09:15.320Z,10.38
2023-05-15T00:11:41.740Z,9.52
2023-05-15T00:14:08.155Z,9.45
2023-05-15T00:16:34.719Z,10.73
2023-05-15T00:19:01.236Z,8.85
2023-05-15T00:21:27.664Z,12.30
2023-05-15T00:23:54.127Z,9.25
2023-05-15T00:26:20.818Z,11.40
2023-05-15T00:28:47.203Z,8.88
2023-05-15T00:31:14.804Z,9.85
2023-05-15T00:33:41.332Z,11.68
2023-05-15T00:36:09.611Z,10.35
2023-05-15T00:38:36.055Z,8.88
2023-05-15T00:41:04.613Z,9.10
2023-05-15T00:43:31.517Z,9.00
2023-05-15T00:45:59.006Z,15.20
2023-05-15T00:48:27.609Z,9.90
2023-05-15T00:50:55.454Z,11.07
2023-05-15T00:53:24.016Z,10.80
2023-05-15T00:55:51.971Z,9.55
2023-05-15T00:58:21.258Z,9.23
2023-05-15T01:00:49.633Z,13.48
2023-05-15T01:03:17.757Z,13.52
2023-05-15T01:05:45.048Z,11.07
2023-05-15T01:08:27.561Z,11.38
2023-05-15T01:10:54.255Z,9.10
2023-05-15T01:13:22.341Z,10.73
2023-05-15T01:15:49.332Z,12.02
2023-05-15T01:18:16.986Z,11.38
2023-05-15T01:20:49.146Z,8.98
2023-05-15T01:23:27.980Z,9.88
2023-05-15T01:26:25.955Z,10.40
2023-05-15T01:29:01.193Z,12.75
2023-05-15T01:31:32.569Z,11.88
2023-05-15T01:34:03.914Z,11.18
2023-05-15T01:36:56.409Z,11.98
2023-05-15T01:39:27.395Z,12.35
2023-05-15T01:42:08.331Z,9.85
2023-05-15T01:44:38.102Z,10.48
2023-05-15T01:47:13.558Z,11.27
2023-05-15T01:49:43.078Z,14.90
2023-05-15T01:52:30.866Z,12.25
2023-05-15T01:54:58.482Z,14.57
2023-05-15T01:57:26.764Z,15.88
2023-05-15T01:59:55.154Z,11.88
2023-05-15T02:02:23.768Z,10.80
2023-05-15T02:04:52.231Z,9.13
2023-05-15T02:07:20.723Z,9.35
2023-05-15T02:09:48.050Z,11.02
2023-05-15T02:12:15.482Z,10.43
2023-05-15T02:14:42.875Z,15.20
2023-05-15T02:17:09.438Z,10.15
2023-05-15T02:19:35.840Z,13.20
2023-05-15T02:22:02.587Z,13.73
2023-05-15T02:24:29.013Z,10.05
2023-05-15T02:27:05.294Z,15.20
2023-05-15T02:29:37.404Z,16.42
2023-05-15T02:32:13.058Z,14.20
2023-05-15T02:34:49.535Z,11.38
2023-05-15T02:37:24.597Z,13.25
2023-05-15T02:39:54.541Z,11.75
2023-05-15T02:42:22.172Z,14.18
2023-05-15T02:44:48.897Z,15.35
2023-05-15T02:47:16.532Z,13.93
2023-05-15T02:49:43.091Z,14.27
2023-05-15T02:52:09.611Z,16.35
2023-05-15T02:54:36.051Z,15.90
2023-05-15T02:57:02.548Z,15.45
2023-05-15T02:59:29.012Z,12.25
2023-05-15T03:01:55.547Z,11.75
2023-05-15T03:04:22.034Z,12.52
2023-05-15T03:06:48.535Z,15.43
2023-05-15T03:09:14.978Z,11.75
2023-05-15T03:11:41.412Z,12.80
2023-05-15T03:14:07.918Z,18.67
2023-05-15T03:16:34.399Z,16.77
2023-05-15T03:19:00.913Z,12.82
2023-05-15T03:21:27.335Z,15.48
2023-05-15T03:23:53.871Z,16.27
2023-05-15T03:26:20.461Z,15.13
2023-05-15T03:28:46.893Z,11.85
2023-05-15T03:31:14.281Z,12.48
2023-05-15T03:33:40.848Z,12.73
2023-05-15T03:36:07.825Z,13.60
2023-05-15T03:38:34.221Z,14.48
2023-05-15T03:41:00.644Z,15.32
2023-05-15T03:43:27.099Z,15.77
2023-05-15T03:45:53.572Z,19.40
2023-05-15T03:48:19.985Z,15.35
2023-05-15T03:50:46.512Z,14.05
2023-05-15T03:53:12.946Z,16.30
2023-05-15T03:55:39.382Z,16.05
2023-05-15T03:58:05.813Z,17.75
2023-05-15T04:00:33.611Z,15.13
2023-05-15T04:03:00.104Z,15.10
2023-05-15T04:05:26.924Z,17.63
2023-05-15T04:07:53.621Z,14.43
2023-05-15T04:10:20.088Z,14.73
2023-05-15T04:12:46.569Z,14.18
2023-05-15T04:15:17.283Z,25.83
2023-05-15T04:17:48.137Z,23.70
2023-05-15T04:20:16.166Z,16.92
2023-05-15T04:22:43.559Z,22.58
2023-05-15T04:25:11.433Z,19.92
2023-05-15T04:27:38.541Z,20.70
2023-05-15T04:30:05.968Z,18.40
2023-05-15T04:32:33.794Z,18.13
2023-05-15T04:35:01.239Z,13.60
2023-05-15T04:37:28.388Z,14.63
2023-05-15T04:39:55.219Z,17.63
2023-05-15T04:42:21.630Z,16.10
2023-05-15T04:44:48.027Z,18.45
2023-05-15T04:47:14.433Z,22.05
2023-05-15T04:49:41.902Z,17.35
2023-05-15T04:52:08.332Z,15.45
2023-05-15T04:54:34.712Z,15.82
2023-05-15T04:57:01.326Z,18.13
2023-05-15T04:59:28.698Z,16.52
2023-05-15T05:01:55.217Z,17.08
2023-05-15T05:04:21.654Z,18.63
2023-05-15T05:06:48.064Z,20.02
2023-05-15T05:09:14.473Z,20.35
2023-05-15T05:11:43.904Z,22.45
2023-05-15T05:14:11.312Z,23.77
2023-05-15T05:16:37.804Z,22.67
2023-05-15T05:19:04.558Z,21.60
2023-05-15T05:21:31.294Z,24.00
2023-05-15T05:23:57.737Z,17.77
2023-05-15T05:26:24.789Z,21.48
2023-05-15T05:28:51.217Z,21.60
2023-05-15T05:31:17.773Z,22.50
2023-05-15T05:33:44.240Z,17.15
2023-05-15T05:36:10.679Z,20.23
2023-05-15T05:38:38.177Z,19.48
2023-05-15T05:41:04.594Z,22.67
2023-05-15T05:43:31.350Z,24.35
2023-05-15T05:45:57.828Z,19.52
2023-05-15T05:48:24.241Z,15.50
2023-05-15T05:50:51.404Z,24.50
2023-05-15T05:53:17.811Z,20.85
2023-05-15T05:55:44.447Z,22.33
2023-05-15T05:58:24.027Z,19.63
2023-05-15T06:00:51.254Z,20.58
2023-05-15T06:03:17.799Z,19.92
2023-05-15T06:05:44.416Z,15.85
2023-05-15T06:08:11.052Z,15.55
2023-05-15T06:10:37.561Z,21.42
2023-05-15T06:13:03.969Z,13.38
2023-05-15T06:15:30.634Z,15.77
2023-05-15T06:17:57.064Z,19.95
2023-05-15T06:20:23.707Z,18.65
2023-05-15T06:22:50.249Z,20.20
2023-05-15T06:25:16.731Z,15.95
2023-05-15T06:27:43.196Z,19.73
2023-05-15T06:30:10.277Z,17.90
2023-05-15T06:32:36.735Z,20.27
2023-05-15T06:35:03.351Z,15.95
2023-05-15T06:37:30.268Z,20.23
2023-05-15T06:39:56.719Z,14.70
2023-05-15T06:42:23.593Z,18.77
2023-05-15T06:44:50.046Z,12.95
2023-05-15T06:47:16.615Z,11.32
2023-05-15T06:49:43.029Z,14.57
2023-05-15T06:52:09.450Z,14.60
2023-05-15T06:54:35.999Z,9.30
2023-05-15T06:57:02.436Z,16.48
2023-05-15T06:59:28.906Z,11.43
2023-05-15T07:01:56.105Z,10.98
2023-05-15T07:04:22.695Z,13.70
2023-05-15T07:06:49.148Z,11.73
2023-05-15T07:09:15.564Z,12.30
2023-05-15T07:11:42.230Z,14.45
2023-05-15T07:14:08.673Z,15.80
2023-05-15T07:16:35.112Z,13.85
2023-05-15T07:19:01.762Z,11.32
2023-05-15T07:21:28.297Z,11.25
2023-05-15T07:23:54.729Z,12.50
2023-05-15T07:26:32.417Z,11.93
2023-05-15T07:29:04.090Z,14.40
2023-05-15T07:31:33.785Z,10.00
2023-05-15T07:34:00.320Z,13.73
2023-05-15T07:36:26.764Z,10.70
2023-05-15T07:38:53.185Z,11.27
2023-05-15T07:41:19.597Z,12.15
2023-05-15T07:43:46.273Z,12.48
2023-05-15T07:46:12.782Z,17.10
2023-05-15T07:48:39.257Z,10.88
2023-05-15T07:51:06.285Z,12.63
2023-05-15T07:53:33.265Z,8.93
2023-05-15T07:55:59.859Z,9.27
2023-05-15T07:58:26.281Z,10.27
2023-05-15T08:00:52.865Z,8.02
2023-05-15T08:03:19.547Z,26.90
2023-05-15T08:05:47.184Z,11.88
2023-05-15T08:08:13.626Z,6.85
2023-05-15T08:10:40.102Z,8.80
2023-05-15T08:13:07.099Z,9.13
2023-05-15T08:15:33.663Z,9.75
2023-05-15T08:18:00.249Z,7.43
2023-05-15T08:20:26.737Z,8.85
2023-05-15T08:22:53.145Z,7.32
2023-05-15T08:25:19.572Z,9.88
2023-05-15T08:27:45.980Z,9.60
2023-05-15T08:30:13.129Z,7.18
2023-05-15T08:32:39.606Z,11.30
2023-05-15T08:35:06.606Z,7.40
2023-05-15T08:37:33.704Z,7.85
2023-05-15T08:40:00.215Z,8.00
2023-05-15T08:42:37.727Z,5.10
2023-05-15T08:45:05.380Z,5.50
2023-05-15T08:47:35.470Z,8.18
2023-05-15T08:50:14.275Z,9.88
2023-05-15T08:52:42.768Z,10.40
2023-05-15T08:55:10.832Z,9.75
2023-05-15T08:57:37.850Z,11.75
2023-05-15T09:00:09.258Z,8.40
2023-05-15T09:02:37.453Z,7.95
2023-05-15T09:05:06.161Z,6.82
2023-05-15T09:07:33.150Z,5.97
2023-05-15T09:10:01.200Z,8.23
2023-05-15T09:12:28.039Z,11.85
2023-05-15T09:15:17.223Z,7.50
2023-05-15T09:17:45.130Z,11.02
2023-05-15T09:20:32.206Z,10.43
2023-05-15T09:23:00.208Z,12.93
2023-05-15T09:25:34.545Z,12.98
2023-05-15T09:28:01.113Z,6.63
2023-05-15T09:30:28.044Z,6.50
2023-05-15T09:32:56.256Z,7.40
2023-05-15T09:35:36.598Z,10.50
2023-05-15T09:38:07.836Z,10.95
2023-05-15T09:40:34.288Z,14.38
2023-05-15T09:43:00.749Z,13.10
2023-05-15T09:45:29.801Z,11.82
2023-05-15T09:47:59.355Z,10.75
2023-05-15T09:50:35.411Z,8.30
2023-05-15T09:53:02.239Z,13.35
2023-05-15T09:55:31.919Z,7.82
2023-05-15T09:58:06.330Z,15.75
2023-05-15T10:00:34.141Z,11.50
2023-05-15T10:03:05.091Z,12.68
2023-05-15T10:05:42.589Z,12.63
2023-05-15T10:08:09.802Z,11.85
2023-05-15T10:10:36.236Z,13.20
2023-05-15T10:13:05.464Z,10.50
2023-05-15T10:15:32.966Z,20.52
2023-05-15T10:18:00.412Z,8.48
2023-05-15T10:20:27.357Z,16.08
2023-05-15T10:22:56.500Z,13.60
2023-05-15T10:25:50.447Z,10.88
2023-05-15T10:28:17.239Z,16.65
2023-05-15T10:30:44.025Z,10.38
2023-05-15T10:33:11.432Z,9.70
2023-05-15T10:35:39.851Z,7.90
2023-05-15T10:38:07.379Z,9.60
2023-05-15T10:40:37.370Z,10.63
2023-05-15T10:43:04.852Z,11.63
2023-05-15T10:45:31.882Z,8.70
2023-05-15T10:47:59.358Z,6.15
2023-05-15T10:50:27.337Z,7.25
2023-05-15T10:52:55.877Z,10.40
2023-05-15T10:55:23.081Z,6.80
2023-05-15T10:57:49.745Z,8.05
2023-05-15T11:00:22.174Z,8.57
2023-05-15T11:02:49.756Z,8.57
2023-05-15T11:05:16.286Z,7.50
2023-05-15T11:07:42.758Z,6.50
2023-05-15T11:10:27.731Z,11.65
2023-05-15T11:12:58.425Z,7.82
2023-05-15T11:15:25.073Z,7.32
2023-05-15T11:18:06.067Z,11.05
2023-05-15T11:20:43.044Z,8.13
2023-05-15T11:23:09.649Z,7.72
2023-05-15T11:25:37.076Z,9.13
2023-05-15T11:28:04.693Z,5.13
2023-05-15T11:30:36.290Z,5.05
2023-05-15T11:33:08.664Z,8.40
2023-05-15T11:35:45.913Z,8.77
2023-05-15T11:38:17.467Z,9.55
2023-05-15T11:40:49.131Z,8.32
2023-05-15T11:43:28.099Z,8.82
2023-05-15T11:45:56.326Z,9.82
2023-05-15T11:48:24.364Z,9.25
2023-05-15T11:50:53.665Z,5.10
2023-05-15T11:53:23.005Z,7.53
2023-05-15T11:55:52.140Z,5.00
2023-05-15T11:58:21.142Z,11.32
2023-05-15T12:00:49.190Z,10.48
2023-05-15T12:03:23.915Z,8.85
2023-05-15T12:05:58.953Z,9.07
2023-05-15T12:08:27.210Z,6.22
2023-05-15T12:10:53.634Z,11.02
2023-05-15T12:13:21.236Z,6.00
2023-05-15T12:15:47.643Z,5.47
2023-05-15T12:18:14.352Z,11.10
2023-05-15T12:20:46.674Z,6.53
2023-05-15T12:23:17.160Z,5.57
2023-05-15T12:25:46.571Z,7.53
2023-05-15T12:28:13.820Z,4.72
2023-05-15T12:30:42.129Z,8.75
2023-05-15T12:33:10.256Z,3.78
2023-05-15T12:35:41.241Z,4.78
2023-05-15T12:38:07.667Z,6.22
2023-05-15T12:40:34.923Z,7.72
2023-05-15T12:43:06.223Z,6.28
2023-05-15T12:45:35.113Z,6.25
2023-05-15T12:48:01.777Z,6.45
2023-05-15T12:50:30.678Z,9.40
2023-05-15T12:52:58.351Z,8.35
2023-05-15T12:55:32.626Z,5.57
2023-05-15T12:58:02.241Z,4.97
2023-05-15T13:00:29.528Z,7.95
2023-05-15T13:02:57.261Z,4.25
2023-05-15T13:05:28.176Z,3.97
2023-05-15T13:07:55.222Z,5.50
2023-05-15T13:10:23.529Z,5.13
2023-05-15T13:12:51.986Z,5.40
2023-05-15T13:15:44.965Z,6.03
2023-05-15T13:18:13.970Z,13.63
2023-05-15T13:20:43.980Z,8.02
2023-05-15T13:23:11.778Z,5.82
2023-05-15T13:25:38.263Z,3.60
2023-05-15T13:28:06.877Z,9.95
2023-05-15T13:30:34.534Z,9.85
2023-05-15T13:33:01.736Z,5.68
2023-05-15T13:35:28.690Z,5.53
2023-05-15T13:37:55.367Z,8.65
2023-05-15T13:40:21.835Z,6.75
2023-05-15T13:42:48.273Z,10.90
2023-05-15T13:45:16.361Z,7.28
2023-05-15T13:47:43.462Z,7.18
2023-05-15T13:50:12.453Z,5.88
2023-05-15T13:52:39.684Z,6.78
2023-05-15T13:55:06.922Z,8.65
2023-05-15T13:57:33.327Z,4.60
2023-05-15T13:59:59.726Z,3.78
2023-05-15T14:02:26.986Z,3.63
2023-05-15T14:04:53.826Z,6.28
2023-05-15T14:07:23.878Z,4.00
2023-05-15T14:09:51.477Z,10.85
2023-05-15T14:12:18.261Z,8.13
2023-05-15T14:14:47.899Z,5.25
2023-05-15T14:17:15.083Z,4.15
2023-05-15T14:19:41.733Z,3.35
2023-05-15T14:22:08.343Z,7.28
2023-05-15T14:24:34.740Z,6.78
2023-05-15T14:27:01.595Z,3.22
2023-05-15T14:29:27.988Z,9.48
2023-05-15T14:31:54.480Z,3.80
2023-05-15T14:34:22.489Z,3.58
2023-05-15T14:36:49.628Z,11.35
2023-05-15T14:39:16.710Z,5.93
2023-05-15T14:41:44.070Z,5.50
2023-05-15T14:44:10.596Z,7.53
2023-05-15T14:46:38.021Z,5.78
2023-05-15T14:49:05.086Z,3.35
2023-05-15T14:51:32.210Z,6.45
2023-05-15T14:53:58.859Z,5.90
2023-05-15T14:56:25.907Z,4.15
2023-05-15T14:58:53.607Z,4.30
2023-05-15T15:01:20.699Z,4.70
2023-05-15T15:03:48.002Z,2.65
2023-05-15T15:06:14.695Z,2.65
2023-05-15T15:08:41.234Z,2.42
2023-05-15T15:11:07.846Z,5.78
2023-05-15T15:13:34.432Z,3.88
2023-05-15T15:16:00.904Z,3.03
2023-05-15T15:18:27.394Z,6.55
2023-05-15T15:20:53.985Z,4.90
2023-05-15T15:23:20.556Z,6.45
2023-05-15T15:25:47.154Z,5.60
2023-05-15T15:28:13.549Z,5.65
2023-05-15T15:30:40.117Z,8.10
2023-05-15T15:33:06.629Z,3.45
2023-05-15T15:35:33.226Z,3.22
2023-05-15T15:37:59.838Z,2.88
2023-05-15T15:40:26.432Z,4.93
2023-05-15T15:42:54.157Z,3.35
2023-05-15T15:45:20.812Z,3.92
2023-05-15T15:47:47.283Z,4.53
2023-05-15T15:50:13.710Z,3.03
2023-05-15T15:52:40.240Z,4.90
2023-05-15T15:55:07.312Z,2.45
2023-05-15T15:57:33.737Z,5.82
2023-05-15T16:00:00.225Z,4.65
2023-05-15T16:02:26.698Z,6.40
2023-05-15T16:04:53.124Z,4.93
2023-05-15T16:07:19.606Z,17.10
2023-05-15T16:09:49.325Z,4.63
2023-05-15T16:12:20.220Z,4.15
2023-05-15T16:14:46.610Z,4.90
2023-05-15T16:17:13.038Z,3.33
2023-05-15T16:19:39.456Z,11.60
2023-05-15T16:22:05.865Z,5.13
2023-05-15T16:24:32.607Z,6.85
2023-05-15T16:26:59.128Z,4.28
2023-05-15T16:29:25.987Z,3.40
2023-05-15T16:31:52.940Z,2.38
2023-05-15T16:34:19.437Z,5.80
2023-05-15T16:36:45.856Z,4.13
2023-05-15T16:39:12.252Z,4.47
2023-05-15T16:41:38.703Z,6.35
2023-05-15T16:44:09.425Z,4.88
2023-05-15T16:46:35.969Z,4.20
2023-05-15T16:49:02.386Z,6.68
2023-05-15T16:51:28.815Z,4.13
2023-05-15T16:53:56.426Z,5.03
2023-05-15T16:56:22.813Z,7.57
2023-05-15T16:58:50.594Z,4.97
2023-05-15T17:01:17.065Z,5.20
2023-05-15T17:03:44.093Z,5.65
2023-05-15T17:06:10.696Z,5.97
2023-05-15T17:08:37.136Z,5.75
2023-05-15T17:11:04.127Z,4.60
2023-05-15T17:13:30.528Z,7.57
2023-05-15T17:15:56.959Z,16.13
2023-05-15T17:18:23.598Z,4.57
2023-05-15T17:20:50.020Z,6.03
2023-05-15T17:23:16.440Z,6.78
2023-05-15T17:25:42.841Z,5.35
2023-05-15T17:28:09.224Z,7.80
2023-05-15T17:30:35.735Z,7.72
2023-05-15T17:33:02.253Z,5.18
2023-05-15T17:35:30.644Z,6.57
2023-05-15T17:37:59.101Z,7.05
2023-05-15T17:40:25.567Z,7.38
2023-05-15T17:42:51.968Z,11.80
2023-05-15T17:45:19.449Z,5.65
2023-05-15T17:47:45.849Z,14.80
2023-05-15T17:50:12.326Z,7.70
2023-05-15T17:52:38.749Z,6.15
2023-05-15T17:55:06.024Z,6.82
2023-05-15T17:57:32.538Z,9.57
2023-05-15T17:59:58.962Z,4.65
2023-05-15T18:02:25.683Z,7.35
2023-05-15T18:04:52.184Z,9.80
2023-05-15T18:07:18.617Z,5.05
2023-05-15T18:09:45.029Z,6.80
2023-05-15T18:12:11.424Z,9.00
2023-05-15T18:14:39.247Z,8.40
2023-05-15T18:17:06.888Z,7.40
2023-05-15T18:19:33.284Z,6.95
2023-05-15T18:22:02.974Z,4.40
2023-05-15T18:24:29.421Z,7.00
2023-05-15T18:26:55.839Z,7.03
2023-05-15T18:29:22.246Z,7.38
2023-05-15T18:31:48.745Z,5.43
2023-05-15T18:34:15.249Z,4.85
2023-05-15T18:36:41.664Z,5.20
2023-05-15T18:39:08.132Z,5.20
2023-05-15T18:41:34.534Z,5.90
2023-05-15T18:44:01.050Z,5.10
2023-05-15T18:46:28.393Z,4.85
2023-05-15T18:48:54.984Z,5.75
2023-05-15T18:51:21.408Z,9.02
2023-05-15T18:53:47.807Z,6.03
2023-05-15T18:56:14.218Z,9.60
2023-05-15T18:58:40.654Z,7.05
2023-05-15T19:01:07.124Z,5.78
2023-05-15T19:03:35.906Z,6.82
2023-05-15T19:06:02.342Z,6.03
2023-05-15T19:08:28.767Z,7.05
2023-05-15T19:10:55.283Z,6.70
2023-05-15T19:13:21.893Z,6.50
2023-05-15T19:15:52.293Z,6.28
2023-05-15T19:18:18.944Z,6.28
2023-05-15T19:20:49.603Z,9.35
2023-05-15T19:23:16.028Z,9.15
2023-05-15T19:25:42.599Z,7.60
2023-05-15T19:28:09.045Z,6.47
2023-05-15T19:30:35.554Z,6.18
2023-05-15T19:33:02.020Z,6.88
2023-05-15T19:35:28.473Z,8.45
2023-05-15T19:37:54.879Z,8.65
2023-05-15T19:40:21.262Z,7.50
2023-05-15T19:42:47.900Z,10.30
2023-05-15T19:45:14.342Z,12.05
2023-05-15T19:47:42.454Z,7.80
2023-05-15T19:50:09.949Z,9.45
2023-05-15T19:52:36.401Z,11.82
2023-05-15T19:55:02.807Z,9.40
2023-05-15T19:57:29.210Z,9.95
2023-05-15T19:59:55.638Z,8.20
2023-05-15T20:02:22.129Z,9.02
2023-05-15T20:04:48.586Z,9.15
2023-05-15T20:07:14.982Z,7.32
2023-05-15T20:09:41.376Z,6.38
2023-05-15T20:12:07.811Z,14.13
2023-05-15T20:14:34.263Z,10.13
2023-05-15T20:17:00.689Z,8.88
2023-05-15T20:19:27.850Z,7.70
2023-05-15T20:21:54.311Z,6.78
2023-05-15T20:24:25.537Z,13.60
2023-05-15T20:26:51.986Z,7.45
2023-05-15T20:29:18.622Z,8.60
2023-05-15T20:31:45.245Z,7.45
2023-05-15T20:34:15.113Z,6.95
2023-05-15T20:36:41.555Z,9.65
2023-05-15T20:39:08.537Z,10.50
2023-05-15T20:41:35.474Z,10.13
2023-05-15T20:44:01.934Z,8.75
2023-05-15T20:46:30.114Z,8.32
2023-05-15T20:48:57.527Z,10.75
2023-05-15T20:51:24.026Z,8.77
2023-05-15T20:53:50.868Z,7.07
2023-05-15T20:56:17.276Z,8.45
2023-05-15T20:58:44.145Z,8.52
2023-05-15T21:01:10.691Z,7.60
2023-05-15T21:03:37.173Z,8.95
2023-05-15T21:06:03.775Z,7.68
2023-05-15T21:08:30.261Z,7.10
2023-05-15T21:10:56.717Z,7.15
2023-05-15T21:13:23.104Z,9.25
2023-05-15T21:15:50.279Z,7.43
2023-05-15T21:18:16.784Z,9.32
2023-05-15T21:20:43.180Z,7.55
2023-05-15T21:23:09.636Z,8.73
2023-05-15T21:25:36.987Z,10.13
2023-05-15T21:28:04.448Z,10.55
2023-05-15T21:30:31.569Z,7.93
2023-05-15T21:32:58.028Z,10.70
2023-05-15T21:35:25.403Z,10.13
2023-05-15T21:37:51.822Z,8.02
2023-05-15T21:40:18.329Z,11.18
2023-05-15T21:42:44.755Z,10.40
2023-05-15T21:45:11.152Z,8.20
2023-05-15T21:47:37.596Z,9.73
2023-05-15T21:50:05.769Z,9.38
2023-05-15T21:52:32.183Z,13.40
2023-05-15T21:54:58.574Z,8.75
2023-05-15T21:57:24.980Z,10.73
2023-05-15T21:59:51.373Z,17.52
2023-05-15T22:02:17.792Z,8.00
2023-05-15T22:04:44.251Z,8.02
2023-05-15T22:07:11.186Z,10.55
2023-05-15T22:09:37.617Z,11.48
2023-05-15T22:12:04.620Z,11.13
2023-05-15T22:14:31.085Z,8.88
2023-05-15T22:16:57.544Z,8.70
2023-05-15T22:19:32.695Z,8.85
2023-05-15T22:22:01.270Z,11.00
2023-05-15T22:24:27.668Z,9.48
2023-05-15T22:26:54.193Z,11.82
2023-05-15T22:29:20.653Z,9.43
2023-05-15T22:31:47.351Z,11.30
2023-05-15T22:34:13.863Z,9.77
2023-05-15T22:36:40.932Z,11.07
2023-05-15T22:39:07.960Z,12.50
2023-05-15T22:41:34.393Z,9.60
2023-05-15T22:44:01.754Z,14.52
2023-05-15T22:46:28.283Z,10.05
2023-05-15T22:48:54.979Z,15.98
2023-05-15T22:51:22.195Z,14.20
2023-05-15T22:53:48.670Z,17.50
2023-05-15T22:56:15.064Z,11.07
2023-05-15T22:58:41.465Z,10.52
2023-05-15T23:01:08.381Z,11.05
2023-05-15T23:03:34.921Z,11.98
2023-05-15T23:06:01.392Z,19.52
2023-05-15T23:08:27.786Z,16.45
2023-05-15T23:10:56.022Z,13.77
2023-05-15T23:13:22.454Z,10.80
2023-05-15T23:15:48.966Z,14.90
2023-05-15T23:18:16.104Z,10.25
2023-05-15T23:20:42.537Z,13.27
2023-05-15T23:23:08.929Z,11.00
2023-05-15T23:25:35.474Z,12.60
2023-05-15T23:28:01.868Z,14.75
2023-05-15T23:30:28.396Z,12.02
2023-05-15T23:32:56.593Z,12.15
2023-05-15T23:35:23.024Z,13.38
2023-05-15T23:37:49.403Z,12.35
2023-05-15T23:40:15.960Z,12.50
2023-05-15T23:42:42.367Z,10.93
2023-05-15T23:45:09.608Z,12.65
2023-05-15T23:47:36.489Z,15.57
2023-05-15T23:50:03.633Z,14.05
2023-05-15T23:52:30.090Z,14.98
2023-05-15T23:54:56.485Z,14.68
2023-05-15T23:57:22.920Z,14.60
2023-05-15T23:59:49.360Z,14.65
